Time;durP1;ratioP1;P1;durP2;ratioP2;P2;SDS_P1;SDS_P2;PMS_P1;PMS_P2;Temp;Humidity;BMP_temperature;BMP_pressure;BME280_temperature;BME280_humidity;BME280_pressure;Samples;Min_cycle;Max_cycle;Signal;HPM_P1;HPM_P2
2024/02/12 00:01:55;;;;;;;;;;;;;;;5.32;100.00;100086.45;109397;1254;60051;-70
2024/02/12 00:04:26;;;;;;;;;;;;;;;5.26;100.00;100089.13;109184;1254;74187;-73
2024/02/12 00:06:56;;;;;;;;;;;;;;;5.24;100.00;100083.66;109279;1254;64977;-70
2024/02/12 00:09:23;;;;;;;;;;;;;;;5.21;100.00;100078.98;109300;1252;71482;-70
2024/02/12 00:11:53;;;;;;;;;;;;;;;5.18;100.00;100072.87;109293;1256;61729;-70
2024/02/12 00:14:22;;;;;;;;;;;;;;;5.16;100.00;100069.17;109198;1253;59894;-72
2024/02/12 00:16:50;;;;;;;;;;;;;;;5.14;100.00;100069.13;109212;1254;74307;-69
2024/02/12 00:19:18;;;;;;;;;;;;;;;5.14;100.00;100072.06;109282;1253;65776;-69
2024/02/12 00:21:48;;;;;;;;;;;;;;;5.12;100.00;100071.21;109222;1254;71679;-69
2024/02/12 00:24:17;;;;;;;;;;;;;;;5.09;100.00;100067.23;109223;1252;60526;-70
2024/02/12 00:26:44;;;;;;;;;;;;;;;5.09;100.00;100067.84;109309;1254;60522;-69
2024/02/12 00:29:14;;;;;;;;;;;;;;;5.08;100.00;100065.88;109253;1254;75500;-69
2024/02/12 00:31:42;;;;;;;;;;;;;;;5.09;100.00;100063.29;109275;1254;66919;-69
2024/02/12 00:34:10;;;;;;;;;;;;;;;5.13;100.00;100066.62;109269;1254;71815;-69
2024/02/12 00:36:37;;;;;;;;;;;;;;;5.22;100.00;100068.31;109351;1254;60511;-69
2024/02/12 00:39:09;;;;;;;;;;;;;;;5.26;100.00;100063.41;109253;1254;59636;-69
2024/02/12 00:41:37;;;;;;;;;;;;;;;5.31;100.00;100061.58;109251;1254;75540;-69
2024/02/12 00:44:04;;;;;;;;;;;;;;;5.36;100.00;100062.73;109222;1254;67011;-69
2024/02/12 00:46:32;;;;;;;;;;;;;;;5.41;100.00;100063.68;109255;1254;73638;-69
2024/02/12 00:49:00;;;;;;;;;;;;;;;5.44;100.00;100063.89;109246;1253;62127;-68
2024/02/12 00:51:27;;;;;;;;;;;;;;;5.46;100.00;100064.85;109261;1253;59675;-67
2024/02/12 00:53:55;;;;;;;;;;;;;;;5.50;100.00;100064.67;109253;1254;75783;-67
2024/02/12 00:56:23;;;;;;;;;;;;;;;5.51;100.00;100072.07;109291;1254;66780;-74
2024/02/12 00:58:50;;;;;;;;;;;;;;;5.50;100.00;100073.95;109240;1254;72797;-66
2024/02/12 01:01:18;;;;;;;;;;;;;;;5.49;100.00;100075.44;109229;1254;61849;-66
2024/02/12 01:03:46;;;;;;;;;;;;;;;5.48;100.00;100069.67;109201;1253;59803;-69
2024/02/12 01:06:13;;;;;;;;;;;;;;;5.47;100.00;100072.41;109260;1253;75531;-68
2024/02/12 01:08:41;;;;;;;;;;;;;;;5.44;100.00;100066.64;109200;1254;66968;-69
2024/02/12 01:11:10;;;;;;;;;;;;;;;5.45;100.00;100066.55;109256;1253;71413;-67
2024/02/12 01:13:37;;;;;;;;;;;;;;;5.46;100.00;100065.95;109256;1253;60421;-68
2024/02/12 01:16:05;;;;;;;;;;;;;;;5.47;100.00;100059.81;109251;1253;59718;-70
2024/02/12 01:18:33;;;;;;;;;;;;;;;5.47;100.00;100055.64;109272;1252;74249;-76
2024/02/12 01:21:00;;;;;;;;;;;;;;;5.46;100.00;100049.77;109238;1253;64693;-66
2024/02/12 01:23:30;;;;;;;;;;;;;;;5.46;100.00;100053.37;109271;1254;72391;-67
2024/02/12 01:25:59;;;;;;;;;;;;;;;5.45;100.00;100053.27;109247;1254;61745;-68
2024/02/12 01:28:27;;;;;;;;;;;;;;;5.48;100.00;100051.93;109270;1253;59784;-69
2024/02/12 01:30:55;;;;;;;;;;;;;;;5.51;100.00;100054.05;109223;1253;74843;-70
2024/02/12 01:33:22;;;;;;;;;;;;;;;5.52;100.00;100045.52;109274;1253;67251;-66
2024/02/12 01:35:50;;;;;;;;;;;;;;;5.58;100.00;100040.95;109261;1254;71756;-68
2024/02/12 01:38:17;;;;;;;;;;;;;;;5.68;100.00;100041.34;109236;1252;60833;-67
2024/02/12 01:40:45;;;;;;;;;;;;;;;5.75;100.00;100041.95;109240;1253;59692;-76
2024/02/12 01:43:37;;;;;;;;;;;;;;;5.76;100.00;100038.80;109228;1254;75018;-67
2024/02/12 01:46:07;;;;;;;;;;;;;;;5.76;100.00;100039.95;109285;1254;65082;-65
2024/02/12 01:48:38;;;;;;;;;;;;;;;5.75;100.00;100042.94;109255;1254;72829;-74
2024/02/12 01:51:07;;;;;;;;;;;;;;;5.74;100.00;100042.07;109221;1254;61164;-64
2024/02/12 01:53:35;;;;;;;;;;;;;;;5.72;100.00;100041.28;109355;1254;59736;-64
2024/02/12 01:56:06;;;;;;;;;;;;;;;5.69;100.00;100043.48;109260;1253;75635;-66
2024/02/12 01:58:37;;;;;;;;;;;;;;;5.65;100.00;100047.15;109260;1254;67004;-65
2024/02/12 02:01:05;;;;;;;;;;;;;;;5.64;100.00;100047.62;109128;1252;72734;-66
2024/02/12 02:03:33;;;;;;;;;;;;;;;5.63;100.00;100049.08;109109;1253;61676;-64
2024/02/12 02:06:01;;;;;;;;;;;;;;;5.60;100.00;100044.86;109281;1254;59674;-66
2024/02/12 02:08:36;;;;;;;;;;;;;;;5.62;100.00;100048.95;109262;1253;75445;-65
2024/02/12 02:11:05;;;;;;;;;;;;;;;5.65;100.00;100052.35;109266;1252;66682;-65
2024/02/12 02:13:33;;;;;;;;;;;;;;;5.65;100.00;100050.62;109252;1253;72771;-65
2024/02/12 02:16:01;;;;;;;;;;;;;;;5.68;100.00;100055.77;109228;1253;59964;-64
2024/02/12 02:18:31;;;;;;;;;;;;;;;5.71;100.00;100059.59;109290;1253;60979;-63
2024/02/12 02:21:00;;;;;;;;;;;;;;;5.72;100.00;100056.59;109236;1254;76030;-66
2024/02/12 02:23:27;;;;;;;;;;;;;;;5.70;100.00;100060.45;109324;1253;65782;-63
2024/02/12 02:25:59;;;;;;;;;;;;;;;5.68;100.00;100063.89;109265;1253;72775;-65
2024/02/12 02:28:27;;;;;;;;;;;;;;;5.67;100.00;100066.61;109288;1252;61084;-65
2024/02/12 02:30:54;;;;;;;;;;;;;;;5.65;100.00;100063.89;109234;1253;60308;-66
2024/02/12 02:33:22;;;;;;;;;;;;;;;5.62;100.00;100055.67;109286;1253;74175;-62
2024/02/12 02:35:50;;;;;;;;;;;;;;;5.63;100.00;100055.64;109323;1253;65581;-63
2024/02/12 02:38:17;;;;;;;;;;;;;;;5.62;100.00;100056.94;109223;1254;71434;-63
2024/02/12 02:40:45;;;;;;;;;;;;;;;5.65;100.00;100063.52;109246;1253;60528;-63
2024/02/12 02:43:12;;;;;;;;;;;;;;;5.68;100.00;100065.59;109336;1252;60239;-62
2024/02/12 02:45:40;;;;;;;;;;;;;;;5.71;100.00;100067.56;109301;1253;75528;-63
2024/02/12 02:48:07;;;;;;;;;;;;;;;5.73;100.00;100070.84;109243;1253;66930;-62
2024/02/12 02:50:35;;;;;;;;;;;;;;;5.74;100.00;100066.90;109243;1253;73340;-62
2024/02/12 02:53:03;;;;;;;;;;;;;;;5.74;100.00;100061.77;109193;1253;63506;-63
2024/02/12 02:55:30;;;;;;;;;;;;;;;5.74;100.00;100053.26;109262;1252;61107;-62
2024/02/12 02:58:01;;;;;;;;;;;;;;;5.74;100.00;100051.41;109294;1253;75507;-62
2024/02/12 03:00:30;;;;;;;;;;;;;;;5.72;100.00;100048.46;109233;1253;66965;-62
2024/02/12 03:02:58;;;;;;;;;;;;;;;5.69;100.00;100051.20;109187;1254;71332;-62
2024/02/12 03:05:27;;;;;;;;;;;;;;;5.67;100.00;100051.30;109218;1254;61102;-62
2024/02/12 03:07:55;;;;;;;;;;;;;;;5.64;100.00;100050.02;109308;1252;59840;-63
2024/02/12 03:10:23;;;;;;;;;;;;;;;5.59;100.00;100036.46;109270;1253;75473;-63
2024/02/12 03:12:50;;;;;;;;;;;;;;;5.55;100.00;100034.64;109230;1254;66867;-69
2024/02/12 03:15:19;;;;;;;;;;;;;;;5.53;100.00;100034.56;109242;1254;72720;-60
2024/02/12 03:17:48;;;;;;;;;;;;;;;5.50;100.00;100033.16;109226;1255;60466;-59
2024/02/12 03:20:17;;;;;;;;;;;;;;;5.49;100.00;100030.48;109253;1253;59672;-59
2024/02/12 03:22:45;;;;;;;;;;;;;;;5.49;100.00;100028.21;109246;1252;74304;-60
2024/02/12 03:25:13;;;;;;;;;;;;;;;5.49;100.00;100030.78;109198;1253;66950;-67
2024/02/12 03:27:43;;;;;;;;;;;;;;;5.51;100.00;100028.58;109212;1253;71722;-59
2024/02/12 03:30:11;;;;;;;;;;;;;;;5.54;100.00;100030.24;109364;1252;60467;-59
2024/02/12 03:32:39;;;;;;;;;;;;;;;5.59;100.00;100034.61;109350;1252;59832;-60
2024/02/12 03:35:07;;;;;;;;;;;;;;;5.71;100.00;100025.45;109331;1253;75440;-68
2024/02/12 03:37:35;;;;;;;;;;;;;;;5.80;100.00;100021.92;109263;1253;66971;-60
2024/02/12 03:40:04;;;;;;;;;;;;;;;5.93;100.00;100026.52;109278;1253;71470;-59
2024/02/12 03:42:32;;;;;;;;;;;;;;;6.01;100.00;100025.48;109256;1253;61858;-60
2024/02/12 03:44:59;;;;;;;;;;;;;;;6.16;100.00;100030.23;109303;1253;59936;-59
2024/02/12 03:47:37;;;;;;;;;;;;;;;6.27;100.00;100031.89;109206;1253;75528;-60
2024/02/12 04:01:18;;;;;;;;;;;;;;;6.57;100.00;100047.21;109250;1253;75550;-62
2024/02/12 04:03:49;;;;;;;;;;;;;;;6.62;100.00;100047.93;109254;1253;67011;-63
2024/02/12 04:06:16;;;;;;;;;;;;;;;6.66;100.00;100043.59;109324;1252;73194;-71
2024/02/12 04:08:45;;;;;;;;;;;;;;;6.72;100.00;100048.45;109281;1253;60498;-61
2024/02/12 04:11:13;;;;;;;;;;;;;;;6.79;100.00;100044.62;109290;1255;59684;-61
2024/02/12 04:13:40;;;;;;;;;;;;;;;6.84;100.00;100048.73;109317;1253;76010;-61
2024/02/12 04:16:11;;;;;;;;;;;;;;;6.87;100.00;100046.02;109247;1253;66153;-63
2024/02/12 04:18:41;;;;;;;;;;;;;;;6.94;100.00;100052.34;109293;1253;71681;-62
2024/02/12 04:21:09;;;;;;;;;;;;;;;6.98;100.00;100061.98;109311;1253;61865;-62
2024/02/12 04:23:37;;;;;;;;;;;;;;;7.02;100.00;100065.13;109317;1253;59944;-62
2024/02/12 04:26:10;;;;;;;;;;;;;;;7.09;100.00;100068.48;109264;1253;75509;-71
2024/02/12 04:28:39;;;;;;;;;;;;;;;7.13;100.00;100068.95;109277;1253;65497;-61
2024/02/12 04:31:07;;;;;;;;;;;;;;;7.18;100.00;100062.99;109256;1253;72762;-61
2024/02/12 04:33:34;;;;;;;;;;;;;;;7.21;100.00;100064.29;109255;1253;61825;-61
2024/02/12 04:36:02;;;;;;;;;;;;;;;7.20;100.00;100063.70;109293;1253;60204;-62
2024/02/12 04:38:33;;;;;;;;;;;;;;;7.20;100.00;100066.82;109216;1253;75564;-62
2024/02/12 04:41:01;;;;;;;;;;;;;;;7.20;100.00;100067.11;109260;1253;66950;-63
2024/02/12 04:43:29;;;;;;;;;;;;;;;7.26;100.00;100066.98;109280;1252;71648;-63
2024/02/12 04:45:57;;;;;;;;;;;;;;;7.26;100.00;100083.29;109240;1255;61760;-69
2024/02/12 04:48:25;;;;;;;;;;;;;;;7.25;100.00;100086.23;109288;1253;59784;-63
2024/02/12 04:50:53;;;;;;;;;;;;;;;7.28;100.00;100081.61;109295;1255;75548;-62
2024/02/12 04:53:20;;;;;;;;;;;;;;;7.31;100.00;100082.52;109262;1253;67096;-63
2024/02/12 04:55:48;;;;;;;;;;;;;;;7.30;100.00;100080.16;109254;1253;72870;-67
2024/02/12 04:58:15;;;;;;;;;;;;;;;7.28;100.00;100078.73;109223;1253;60848;-63
2024/02/12 05:00:43;;;;;;;;;;;;;;;7.27;100.00;100085.89;109268;1253;60030;-62
2024/02/12 05:03:10;;;;;;;;;;;;;;;7.23;100.00;100084.44;109238;1253;75571;-62
2024/02/12 05:05:38;;;;;;;;;;;;;;;7.20;100.00;100085.25;109290;1253;66872;-63
2024/02/12 05:08:06;;;;;;;;;;;;;;;7.17;100.00;100083.83;109197;1253;72033;-67
2024/02/12 05:10:33;;;;;;;;;;;;;;;7.19;100.00;100080.04;109288;1254;61769;-63
2024/02/12 05:13:01;;;;;;;;;;;;;;;7.21;100.00;100081.56;109329;1252;59881;-63
2024/02/12 05:15:30;;;;;;;;;;;;;;;7.21;100.00;100077.89;109345;1253;74461;-63
2024/02/12 05:22:32;;;;;;;;;;;;;;;7.22;100.00;100073.13;109314;1252;66933;-63
2024/02/12 05:23:40;;;;;;;;;;;;;;;7.27;100.00;100076.27;109263;1253;60469;-63
2024/02/12 05:26:09;;;;;;;;;;;;;;;7.28;100.00;100080.41;109323;1252;60299;-62
2024/02/12 05:28:36;;;;;;;;;;;;;;;7.29;100.00;100077.35;109346;1252;75522;-62
2024/02/12 05:31:04;;;;;;;;;;;;;;;7.29;100.00;100078.10;109289;1252;66725;-62
2024/02/12 05:33:31;;;;;;;;;;;;;;;7.32;100.00;100083.43;109286;1253;71578;-65
2024/02/12 05:35:59;;;;;;;;;;;;;;;7.35;100.00;100088.65;109290;1253;61838;-62
2024/02/12 05:38:27;;;;;;;;;;;;;;;7.38;100.00;100092.83;109281;1254;59812;-62
2024/02/12 05:40:54;;;;;;;;;;;;;;;7.39;100.00;100100.13;109316;1252;75617;-61
2024/02/12 05:43:22;;;;;;;;;;;;;;;7.42;100.00;100100.20;109318;1252;65820;-62
2024/02/12 05:45:49;;;;;;;;;;;;;;;7.50;100.00;100100.03;109230;1254;72742;-63
2024/02/12 05:48:17;;;;;;;;;;;;;;;7.53;100.00;100094.23;109320;1252;60911;-62
2024/02/12 05:50:45;;;;;;;;;;;;;;;7.59;100.00;100094.73;109331;1252;60066;-61
2024/02/12 05:53:12;;;;;;;;;;;;;;;7.62;100.00;100092.73;109298;1253;74968;-62
2024/02/12 05:55:40;;;;;;;;;;;;;;;7.65;100.00;100094.08;109309;1252;66959;-64
2024/02/12 05:58:09;;;;;;;;;;;;;;;7.70;100.00;100102.15;109226;1254;70647;-62
2024/02/12 06:00:37;;;;;;;;;;;;;;;7.77;100.00;100103.10;109315;1252;60494;-62
2024/02/12 06:03:04;;;;;;;;;;;;;;;7.83;100.00;100104.06;109311;1252;59869;-62
2024/02/12 06:05:32;;;;;;;;;;;;;;;7.88;100.00;100104.36;109299;1253;74183;-62
2024/02/12 06:07:59;;;;;;;;;;;;;;;7.93;100.00;100101.23;109293;1253;65793;-65
2024/02/12 06:10:27;;;;;;;;;;;;;;;7.94;100.00;100098.42;109275;1254;72783;-62
2024/02/12 06:12:55;;;;;;;;;;;;;;;7.97;100.00;100095.72;109289;1252;62880;-63
2024/02/12 06:15:23;;;;;;;;;;;;;;;8.01;100.00;100098.16;109321;1252;59905;-63
2024/02/12 06:17:52;;;;;;;;;;;;;;;8.09;100.00;100104.85;109295;1252;75519;-63
2024/02/12 06:20:21;;;;;;;;;;;;;;;8.13;100.00;100102.77;109255;1253;67456;-64
2024/02/12 06:22:49;;;;;;;;;;;;;;;8.19;100.00;100107.16;109311;1253;72725;-63
2024/02/12 06:25:19;;;;;;;;;;;;;;;8.24;100.00;100104.66;109333;1253;60718;-65
2024/02/12 06:27:47;;;;;;;;;;;;;;;8.30;100.00;100106.25;109309;1253;59796;-64
2024/02/12 06:30:14;;;;;;;;;;;;;;;8.34;100.00;100109.44;109178;1253;74218;-65
2024/02/12 06:32:42;;;;;;;;;;;;;;;8.36;100.00;100105.23;109346;1253;67125;-65
2024/02/12 06:35:10;;;;;;;;;;;;;;;8.41;100.00;100108.36;109319;1252;72289;-66
2024/02/12 06:37:41;;;;;;;;;;;;;;;8.43;100.00;100102.33;109310;1254;61931;-65
2024/02/12 06:40:10;;;;;;;;;;;;;;;8.49;100.00;100098.56;109221;1254;59866;-66
2024/02/12 06:42:42;;;;;;;;;;;;;;;8.56;100.00;100101.75;109340;1252;74498;-65
2024/02/12 06:45:09;;;;;;;;;;;;;;;8.60;100.00;100101.82;109253;1252;67275;-65
2024/02/12 06:47:37;;;;;;;;;;;;;;;8.66;100.00;100101.55;109307;1253;71526;-65
2024/02/12 06:50:05;;;;;;;;;;;;;;;8.70;100.00;100095.70;109258;1254;60510;-66
2024/02/12 06:52:33;;;;;;;;;;;;;;;8.73;100.00;100103.11;109258;1252;59876;-65
2024/02/12 06:55:01;;;;;;;;;;;;;;;8.75;100.00;100102.55;109244;1253;75982;-65
2024/02/12 06:57:28;;;;;;;;;;;;;;;8.76;100.00;100108.18;109256;1253;66979;-65
2024/02/12 06:59:56;;;;;;;;;;;;;;;8.77;100.00;100103.35;109206;1252;70605;-66
2024/02/12 07:02:23;;;;;;;;;;;;;;;8.82;100.00;100104.73;109276;1252;61738;-65
2024/02/12 07:04:51;;;;;;;;;;;;;;;8.85;100.00;100101.57;109299;1253;59809;-65
2024/02/12 07:07:18;;;;;;;;;;;;;;;8.90;100.00;100103.77;109270;1252;75720;-65
2024/02/12 07:09:46;;;;;;;;;;;;;;;8.95;100.00;100102.20;109314;1252;65621;-65
2024/02/12 07:12:14;;;;;;;;;;;;;;;9.00;100.00;100100.64;109189;1253;73277;-65
2024/02/12 07:14:42;;;;;;;;;;;;;;;9.04;100.00;100103.89;109226;1253;60463;-65
2024/02/12 07:17:12;;;;;;;;;;;;;;;9.09;100.00;100106.86;109290;1253;60095;-65
2024/02/12 07:19:46;;;;;;;;;;;;;;;9.15;100.00;100103.17;109287;1252;74136;-65
2024/02/12 07:22:14;;;;;;;;;;;;;;;9.24;100.00;100101.11;109274;1253;65732;-65
2024/02/12 07:24:48;;;;;;;;;;;;;;;9.34;100.00;100092.13;109333;1253;71299;-66
2024/02/12 07:27:17;;;;;;;;;;;;;;;9.46;100.00;100088.81;109282;1253;62107;-66
2024/02/12 07:29:45;;;;;;;;;;;;;;;9.62;100.00;100087.66;109242;1253;60226;-67
2024/02/12 07:32:13;;;;;;;;;;;;;;;9.81;100.00;100087.46;109322;1252;73696;-67
2024/02/12 07:34:40;;;;;;;;;;;;;;;10.03;100.00;100087.27;109260;1253;66973;-67
2024/02/12 07:37:08;;;;;;;;;;;;;;;10.28;100.00;100081.88;109245;1253;72702;-67
2024/02/12 07:39:38;;;;;;;;;;;;;;;10.51;100.00;100082.59;109202;1253;60394;-67
2024/02/12 07:42:06;;;;;;;;;;;;;;;10.73;100.00;100087.95;109248;1252;59724;-67
2024/02/12 07:44:34;;;;;;;;;;;;;;;10.90;100.00;100088.57;109269;1253;75476;-68
2024/02/12 07:47:11;;;;;;;;;;;;;;;11.02;100.00;100083.60;109279;1252;66950;-67
2024/02/12 07:49:39;;;;;;;;;;;;;;;11.10;100.00;100083.46;109300;1252;72911;-67
2024/02/12 07:52:07;;;;;;;;;;;;;;;11.12;100.00;100082.99;109340;1254;62082;-67
2024/02/12 07:54:38;;;;;;;;;;;;;;;11.14;100.00;100077.36;109345;1252;60229;-67
2024/02/12 07:57:06;;;;;;;;;;;;;;;11.18;100.00;100073.91;109299;1252;76465;-67
2024/02/12 07:59:33;;;;;;;;;;;;;;;11.20;100.00;100071.08;109347;1253;68285;-67
2024/02/12 08:02:02;;;;;;;;;;;;;;;11.21;100.00;100070.93;109332;1253;71626;-67
2024/02/12 08:04:30;;;;;;;;;;;;;;;11.20;100.00;100063.41;109286;1252;65100;-67
2024/02/12 08:06:57;;;;;;;;;;;;;;;11.19;100.00;100064.94;109346;1252;60742;-67
2024/02/12 08:09:25;;;;;;;;;;;;;;;11.17;100.00;100061.98;109316;1252;75565;-67
2024/02/12 08:11:52;;;;;;;;;;;;;;;11.19;100.00;100057.63;109387;1252;65637;-67
2024/02/12 08:14:20;;;;;;;;;;;;;;;11.21;100.00;100059.99;109341;1252;74866;-66
2024/02/12 08:16:47;;;;;;;;;;;;;;;11.22;100.00;100054.80;109273;1252;61787;-66
2024/02/12 08:19:18;;;;;;;;;;;;;;;11.24;100.00;100051.83;109333;1252;61015;-67
2024/02/12 08:21:46;;;;;;;;;;;;;;;11.25;100.00;100049.06;109359;1253;76894;-66
2024/02/12 08:24:15;;;;;;;;;;;;;;;11.27;100.00;100044.10;109404;1252;65657;-66
2024/02/12 08:26:44;;;;;;;;;;;;;;;11.27;100.00;100048.80;109343;1253;74821;-66
2024/02/12 08:29:12;;;;;;;;;;;;;;;11.25;100.00;100035.84;109368;1252;61785;-66
2024/02/12 08:31:40;;;;;;;;;;;;;;;11.22;100.00;100034.12;109292;1252;62695;-66
2024/02/12 08:34:08;;;;;;;;;;;;;;;11.23;100.00;100033.00;109336;1252;74169;-66
2024/02/12 08:36:39;;;;;;;;;;;;;;;11.27;100.00;100031.79;109343;1252;65746;-66
2024/02/12 08:39:06;;;;;;;;;;;;;;;11.32;100.00;100034.38;109358;1252;74877;-67
2024/02/12 08:41:35;;;;;;;;;;;;;;;11.37;100.00;100029.14;109327;1253;61809;-66
2024/02/12 08:44:04;;;;;;;;;;;;;;;11.38;100.00;100017.42;109315;1256;62021;-66
2024/02/12 08:46:33;;;;;;;;;;;;;;;11.41;100.00;100016.36;109247;1253;74255;-66
2024/02/12 08:49:01;;;;;;;;;;;;;;;11.46;100.00;100014.05;109290;1253;66017;-66
2024/02/12 08:51:29;;;;;;;;;;;;;;;11.52;100.00;100007.92;109258;1253;72778;-66
2024/02/12 08:53:56;;;;;;;;;;;;;;;11.58;100.00;100005.05;109201;1253;62864;-66
2024/02/12 08:56:28;;;;;;;;;;;;;;;11.66;100.00;100002.27;109205;1253;59743;-66
2024/02/12 08:58:56;;;;;;;;;;;;;;;11.74;100.00;99996.51;109210;1253;77818;-66
2024/02/12 09:01:23;;;;;;;;;;;;;;;11.80;100.00;100003.03;109184;1253;66972;-65
2024/02/12 09:03:51;;;;;;;;;;;;;;;11.87;100.00;99994.85;109203;1253;74798;-65
2024/02/12 09:06:19;;;;;;;;;;;;;;;11.95;100.00;99991.64;109274;1254;64112;-66
2024/02/12 09:08:47;;;;;;;;;;;;;;;12.04;100.00;99989.17;109302;1253;59739;-66
2024/02/12 09:11:15;;;;;;;;;;;;;;;12.17;100.00;99981.98;109371;1252;76256;-66
2024/02/12 09:13:43;;;;;;;;;;;;;;;12.32;100.00;99978.10;109301;1253;68946;-65
2024/02/12 09:16:10;;;;;;;;;;;;;;;12.48;100.00;99972.91;109330;1252;72764;-66
2024/02/12 09:18:38;;;;;;;;;;;;;;;12.60;100.00;99964.86;109313;1254;65120;-66
2024/02/12 09:21:06;;;;;;;;;;;;;;;12.68;100.00;99955.80;109328;1253;59918;-65
2024/02/12 09:23:33;;;;;;;;;;;;;;;12.76;100.00;99949.63;109282;1253;75572;-64
2024/02/12 09:26:01;;;;;;;;;;;;;;;12.83;100.00;99946.79;109197;1253;66971;-65
2024/02/12 09:28:29;;;;;;;;;;;;;;;12.86;100.00;99942.80;109199;1253;73830;-64
2024/02/12 09:31:02;;;;;;;;;;;;;;;12.90;100.00;99940.56;109161;1253;63831;-62
2024/02/12 09:33:30;;;;;;;;;;;;;;;12.95;100.00;99932.63;109232;1253;61920;-62
2024/02/12 09:35:58;;;;;;;;;;;;;;;13.05;100.00;99930.58;109181;1253;77696;-62
2024/02/12 09:38:27;;;;;;;;;;;;;;;13.17;100.00;99930.13;109247;1255;64984;-62
2024/02/12 09:40:57;;;;;;;;;;;;;;;13.37;100.00;99928.30;109280;1253;71486;-62
2024/02/12 09:43:25;;;;;;;;;;;;;;;13.63;100.00;99929.69;109220;1252;61082;-62
2024/02/12 09:45:53;;;;;;;;;;;;;;;13.88;100.00;99924.56;109239;1253;61206;-62
2024/02/12 09:48:20;;;;;;;;;;;;;;;14.11;100.00;99922.77;109296;1253;75515;-61
2024/02/12 09:50:48;;;;;;;;;;;;;;;14.29;100.00;99915.16;109269;1252;69525;-61
2024/02/12 09:53:19;;;;;;;;;;;;;;;14.42;100.00;99915.38;109292;1253;74902;-62
2024/02/12 09:55:47;;;;;;;;;;;;;;;14.51;100.00;99908.70;109198;1253;60346;-62
2024/02/12 09:58:20;;;;;;;;;;;;;;;14.55;100.00;99905.91;109322;1252;61909;-63
2024/02/12 10:00:48;;;;;;;;;;;;;;;14.55;100.00;99900.59;109257;1253;73848;-62
2024/02/12 10:03:16;;;;;;;;;;;;;;;14.50;100.00;99897.40;109260;1252;67878;-62
2024/02/12 10:05:44;;;;;;;;;;;;;;;14.43;100.00;99888.14;109222;1253;74617;-62
2024/02/12 10:08:18;;;;;;;;;;;;;;;14.35;100.00;99884.77;109188;1253;63825;-62
2024/02/12 10:10:47;;;;;;;;;;;;;;;14.32;100.00;99883.64;109253;1258;60911;-63
2024/02/12 10:13:19;;;;;;;;;;;;;;;14.31;100.00;99884.13;109299;1253;78032;-63
2024/02/12 10:15:49;;;;;;;;;;;;;;;14.29;100.00;99881.77;109238;1253;67689;-62
2024/02/12 10:18:16;;;;;;;;;;;;;;;14.27;100.00;99880.53;109317;1253;74763;-62
2024/02/12 10:20:44;;;;;;;;;;;;;;;14.25;100.00;99874.30;109219;1253;61642;-62
2024/02/12 10:23:12;;;;;;;;;;;;;;;14.23;100.00;99873.34;109235;1253;61146;-62
2024/02/12 10:25:40;;;;;;;;;;;;;;;14.23;100.00;99876.85;109186;1253;76791;-62
2024/02/12 10:28:15;;;;;;;;;;;;;;;14.22;100.00;99873.45;109245;1253;70222;-61
2024/02/12 10:30:42;;;;;;;;;;;;;;;14.22;100.00;99872.93;109237;1253;73700;-62
2024/02/12 10:33:10;;;;;;;;;;;;;;;14.20;100.00;99871.28;109220;1253;62880;-62
2024/02/12 10:35:39;;;;;;;;;;;;;;;14.17;100.00;99865.02;109358;1253;61005;-62
2024/02/12 10:38:06;;;;;;;;;;;;;;;14.17;100.00;99864.14;109239;1253;77184;-62
2024/02/12 10:40:57;;;;;;;;;;;;;;;14.18;100.00;99868.21;109250;1252;70131;-62
2024/02/12 10:43:26;;;;;;;;;;;;;;;14.16;100.00;99862.89;108964;1253;73749;-62
2024/02/12 10:45:53;;;;;;;;;;;;;;;14.16;100.00;99862.98;109203;1253;62467;-62
2024/02/12 10:48:21;;;;;;;;;;;;;;;14.16;100.00;99862.00;109249;1253;61412;-60
2024/02/12 10:50:49;;;;;;;;;;;;;;;14.16;100.00;99862.73;109150;1252;75906;-60
2024/02/12 10:53:19;;;;;;;;;;;;;;;14.15;100.00;99863.07;109221;1253;67950;-61
2024/02/12 10:55:47;;;;;;;;;;;;;;;14.12;100.00;99863.41;109227;1253;73938;-60
2024/02/12 10:58:15;;;;;;;;;;;;;;;14.12;100.00;99863.13;109283;1253;62731;-60
2024/02/12 11:00:52;;;;;;;;;;;;;;;14.12;100.00;99859.42;109249;1251;61384;-60
2024/02/12 11:03:28;;;;;;;;;;;;;;;14.11;100.00;99862.34;109126;1252;77056;-61
2024/02/12 11:05:56;;;;;;;;;;;;;;;14.08;100.00;99858.88;109209;1253;69230;-61
2024/02/12 11:08:23;;;;;;;;;;;;;;;14.07;100.00;99863.79;109193;1253;75271;-62
2024/02/12 11:10:55;;;;;;;;;;;;;;;14.06;100.00;99861.02;109169;1256;63558;-60
2024/02/12 11:13:26;;;;;;;;;;;;;;;14.02;100.00;99863.22;109188;1252;60835;-63
2024/02/12 11:15:53;;;;;;;;;;;;;;;13.99;100.00;99863.94;109142;1253;77538;-60
2024/02/12 11:18:22;;;;;;;;;;;;;;;13.95;100.00;99860.30;109112;1253;69880;-60
2024/02/12 11:20:51;;;;;;;;;;;;;;;13.95;100.00;99865.66;109169;1253;74029;-60
2024/02/12 11:23:19;;;;;;;;;;;;;;;13.93;100.00;99862.44;109099;1253;225039;-63
2024/02/12 11:25:46;;;;;;;;;;;;;;;13.90;100.00;99864.80;109284;1253;60561;-59
2024/02/12 11:28:25;;;;;;;;;;;;;;;13.90;100.00;99865.70;109308;1253;76586;-60
2024/02/12 11:30:53;;;;;;;;;;;;;;;13.90;100.00;99865.63;109316;1253;69286;-60
2024/02/12 11:33:24;;;;;;;;;;;;;;;13.91;100.00;99863.40;109275;1253;74830;-59
2024/02/12 11:36:03;;;;;;;;;;;;;;;13.89;100.00;99865.75;109259;1252;63624;-60
2024/02/12 11:38:30;;;;;;;;;;;;;;;13.90;100.00;99864.41;109155;1253;59842;-60
2024/02/12 11:41:01;;;;;;;;;;;;;;;13.91;100.00;99868.99;109186;1253;77864;-58
2024/02/12 11:43:31;;;;;;;;;;;;;;;13.88;100.00;99871.16;109306;1253;67680;-61
2024/02/12 11:46:02;;;;;;;;;;;;;;;13.85;100.00;99869.48;109125;1253;73556;-60
2024/02/12 11:48:30;;;;;;;;;;;;;;;13.83;100.00;99876.59;109254;1253;60852;-60
2024/02/12 11:50:58;;;;;;;;;;;;;;;13.80;100.00;99875.94;109136;1253;61796;-60
2024/02/12 11:53:25;;;;;;;;;;;;;;;13.77;100.00;99882.66;109288;1253;75062;-59
2024/02/12 11:55:53;;;;;;;;;;;;;;;13.74;100.00;99885.06;109238;1253;68617;-59
2024/02/12 11:58:21;;;;;;;;;;;;;;;13.69;100.00;99889.48;109194;1253;74747;-60
2024/02/12 12:00:48;;;;;;;;;;;;;;;13.66;100.00;99893.85;109208;1256;60469;-59
2024/02/12 12:03:17;;;;;;;;;;;;;;;13.64;100.00;99896.27;109097;1253;61408;-60
2024/02/12 12:05:46;;;;;;;;;;;;;;;13.57;100.00;99903.53;109179;1253;78933;-60
2024/02/12 12:08:14;;;;;;;;;;;;;;;13.49;100.00;99911.88;109313;1253;68887;-60
2024/02/12 12:10:42;;;;;;;;;;;;;;;13.35;100.00;99908.70;109276;1253;73756;-64
2024/02/12 12:13:10;;;;;;;;;;;;;;;13.19;100.00;99910.80;109286;1253;62438;-59
2024/02/12 12:15:37;;;;;;;;;;;;;;;13.05;100.00;99918.98;109154;1253;60792;-60
2024/02/12 12:18:05;;;;;;;;;;;;;;;12.94;100.00;99922.41;109216;1253;76597;-59
2024/02/12 12:20:34;;;;;;;;;;;;;;;12.85;100.00;99929.69;109283;1252;67293;-62
2024/02/12 12:23:09;;;;;;;;;;;;;;;12.80;100.00;99941.96;109185;1256;75494;-61
2024/02/12 12:25:37;;;;;;;;;;;;;;;12.74;100.00;99949.34;109274;1253;61550;-62
2024/02/12 12:28:08;;;;;;;;;;;;;;;12.67;100.00;99951.68;109307;1252;63081;-61
2024/02/12 12:30:37;;;;;;;;;;;;;;;12.62;100.00;99958.98;109209;1253;76438;-61
2024/02/12 12:33:05;;;;;;;;;;;;;;;12.59;100.00;99966.86;109338;1253;69959;-63
2024/02/12 12:35:34;;;;;;;;;;;;;;;12.54;100.00;99968.15;109297;1253;75024;-62
2024/02/12 12:38:09;;;;;;;;;;;;;;;12.49;100.00;99973.64;109196;1253;65054;-62
2024/02/12 12:40:38;;;;;;;;;;;;;;;12.46;100.00;99978.14;109176;1253;60826;-64
2024/02/12 12:43:08;;;;;;;;;;;;;;;12.44;100.00;99984.73;109299;1253;76389;-64
2024/02/12 12:45:39;;;;;;;;;;;;;;;12.40;100.00;99986.74;109336;1253;69498;-64
2024/02/12 12:48:11;;;;;;;;;;;;;;;12.37;100.00;99993.77;109320;1253;75133;-64